Hauptseite
METAR-TAF:

METAR-TAF

Flughäfen :

Flughafen Dresden

Dresden, Deutschland

Breite: 51-08N, Länge: 013-45E, Höhe: 230 m

Beobachtung

Neuester Wetterbericht von vor 29 Minuten, um 20:20 UTC
Wind 2 kt aus West
Temperatur 7°C
Luftfeuchtigkeit 66%
Luftdruck 1018 hPa
Sichtweite 10 km oder mehr
Durchbrochene Bewölkung in der Höhe von 4800 ft

METAR: EDDC 032020Z 27002KT 9999 BKN048 07/01 Q1018

Zeit: 22:49 (20:49 UTC)

Prognose

Neuester Wetterbericht von vor 3 Stunden und 49 Minuten, um 17:00 UTC
Gültige Prognose vom 03 um 18 UTC bis 04 um 18 UTC
Wind 5 kt aus West/Südwest
Sichtweite 10 km oder mehr
Aufgelockert bewölkt in der Höhe von 4500 ft
Übergehend zu
vom 03 um 20 UTC bis 03 um 22 UTC
Wind 3 kt aus unterschiedlichen Richtungen
Zeitweise
vom 04 um 13 UTC bis 04 um 17 UTC
Wind 5 kt aus Nord/Nordost

TAF: EDDC 031700Z 0318/0418 25005KT 9999 SCT045 BECMG 0320/0322 VRB03KT TEMPO 0413/0417 03005KT

Wetterbeobachtungen und Prognosen von mehr als 4000 Flughäfen (METAR und TAF Bericht).

Die verfügbaren Stationen werden durch gelbe und rote Markierungen auf der Karte dargestellt.

Führen Sie die Maus auf sie, um den Namen der Station zu sehen.

Darauf klicken, um die Beobachtung von Wetterbeobachtungen und Prognosen zu sehen.

Um die Karte zu ändern : klicken Sie auf den grünen Tasten mit einem schwarzen Kreuz Zum Vergrößern, auf den grünen Button mit einem Gedankenstrich zu verkleinern, oder auf die grünen Pfeile für benachbarte Karten.


METAR-TAF: